createdAt,value
2022-10-22T00:00:56.021Z,9.40
2022-10-22T00:03:23.661Z,9.40
2022-10-22T00:05:51.189Z,9.40
2022-10-22T00:08:18.600Z,9.30
2022-10-22T00:10:46.151Z,9.20
2022-10-22T00:13:14.749Z,9.10
2022-10-22T00:15:42.150Z,9.20
2022-10-22T00:18:09.543Z,9.30
2022-10-22T00:20:37.049Z,9.30
2022-10-22T00:23:04.873Z,9.20
2022-10-22T00:25:34.793Z,9.10
2022-10-22T00:28:03.548Z,9.20
2022-10-22T00:30:31.199Z,9.20
2022-10-22T00:32:58.663Z,9.30
2022-10-22T00:35:26.191Z,9.30
2022-10-22T00:37:53.676Z,9.30
2022-10-22T00:40:21.216Z,9.40
2022-10-22T00:42:48.686Z,9.30
2022-10-22T00:45:24.520Z,9.30
2022-10-22T00:48:21.807Z,9.40
2022-10-22T00:50:58.930Z,9.30
2022-10-22T00:53:45.248Z,9.30
2022-10-22T00:56:12.958Z,9.30
2022-10-22T00:58:49.529Z,9.30
2022-10-22T01:01:25.749Z,9.30
2022-10-22T01:03:53.618Z,9.30
2022-10-22T01:06:34.639Z,9.30
2022-10-22T01:09:26.997Z,9.30
2022-10-22T01:12:08.019Z,9.30
2022-10-22T01:15:22.151Z,9.40
2022-10-22T01:18:05.987Z,9.30
2022-10-22T01:20:45.129Z,9.20
2022-10-22T01:23:31.222Z,9.20
2022-10-22T01:26:33.676Z,9.30
2022-10-22T01:29:02.994Z,9.30
2022-10-22T01:31:36.849Z,9.30
2022-10-22T01:34:06.867Z,9.20
2022-10-22T01:36:36.155Z,9.10
2022-10-22T01:39:05.987Z,9.20
2022-10-22T01:41:35.117Z,9.20
2022-10-22T01:44:02.854Z,9.20
2022-10-22T01:46:30.571Z,9.20
2022-10-22T01:49:53.632Z,9.20
2022-10-22T01:53:17.228Z,9.20
2022-10-22T01:55:57.542Z,9.10
2022-10-22T01:58:34.123Z,8.90
2022-10-22T02:01:11.589Z,8.90
2022-10-22T02:04:01.567Z,8.80
2022-10-22T02:06:31.488Z,8.70
2022-10-22T02:09:00.798Z,8.70
2022-10-22T02:11:28.528Z,8.60
2022-10-22T02:14:02.982Z,8.60
2022-10-22T02:16:37.963Z,8.60
2022-10-22T02:19:26.420Z,8.50
2022-10-22T02:21:55.145Z,8.40
2022-10-22T02:24:23.488Z,8.30
2022-10-22T02:27:06.602Z,8.20
2022-10-22T02:29:55.809Z,8.10
2022-10-22T02:32:32.078Z,8.00
2022-10-22T02:35:01.334Z,7.90
2022-10-22T02:37:29.588Z,7.90
2022-10-22T02:39:56.986Z,7.80
2022-10-22T02:42:26.852Z,7.70
2022-10-22T02:44:54.309Z,7.70
2022-10-22T02:47:22.288Z,7.50
2022-10-22T02:49:49.768Z,7.50
2022-10-22T02:52:17.220Z,7.60
2022-10-22T02:54:44.669Z,7.60
2022-10-22T02:57:12.139Z,7.60
2022-10-22T02:59:39.536Z,7.50
2022-10-22T03:02:07.047Z,7.60
2022-10-22T03:04:35.450Z,7.60
2022-10-22T03:07:02.899Z,7.50
2022-10-22T03:09:30.547Z,7.40
2022-10-22T03:11:57.988Z,7.40
2022-10-22T03:14:25.466Z,7.30
2022-10-22T03:16:52.869Z,7.30
2022-10-22T03:19:20.295Z,7.30
2022-10-22T03:22:02.606Z,7.20
2022-10-22T03:24:37.029Z,7.10
2022-10-22T03:27:04.597Z,7.10
2022-10-22T03:29:36.837Z,7.20
2022-10-22T03:32:04.414Z,7.20
2022-10-22T03:34:31.949Z,7.30
2022-10-22T03:37:02.124Z,7.30
2022-10-22T03:39:32.475Z,7.30
2022-10-22T03:42:00.644Z,7.40
2022-10-22T03:44:29.035Z,7.50
2022-10-22T03:46:58.791Z,7.60
2022-10-22T03:49:29.243Z,7.70
2022-10-22T03:51:56.850Z,7.70
2022-10-22T03:54:24.496Z,7.80
2022-10-22T03:56:51.973Z,7.90
2022-10-22T03:59:19.396Z,8.10
2022-10-22T04:01:46.829Z,8.20
2022-10-22T04:04:14.286Z,8.20
2022-10-22T04:06:41.714Z,8.30
2022-10-22T04:09:09.231Z,8.20
2022-10-22T04:11:37.141Z,8.30
2022-10-22T04:14:04.736Z,8.30
2022-10-22T04:16:33.097Z,8.40
2022-10-22T04:19:00.582Z,8.40
2022-10-22T04:21:28.131Z,8.40
2022-10-22T04:23:55.600Z,8.30
2022-10-22T04:26:23.121Z,8.20
2022-10-22T04:28:52.259Z,8.20
2022-10-22T04:31:25.559Z,8.30
2022-10-22T04:33:56.544Z,8.30
2022-10-22T04:36:25.030Z,8.30
2022-10-22T04:38:59.781Z,8.40
2022-10-22T04:41:34.378Z,8.40
2022-10-22T04:44:03.076Z,8.30
2022-10-22T04:46:33.589Z,8.30
2022-10-22T04:49:01.159Z,8.40
2022-10-22T04:51:28.718Z,8.50
2022-10-22T04:53:56.495Z,8.50
2022-10-22T04:56:27.816Z,8.50
2022-10-22T04:59:01.373Z,8.50
2022-10-22T05:01:41.744Z,8.40
2022-10-22T05:04:15.821Z,8.50
2022-10-22T05:06:44.237Z,8.50
2022-10-22T05:09:19.467Z,8.60
2022-10-22T05:11:50.579Z,8.70
2022-10-22T05:14:22.103Z,8.80
2022-10-22T05:16:49.985Z,8.90
2022-10-22T05:19:25.189Z,8.90
2022-10-22T05:21:55.025Z,8.90
2022-10-22T05:24:22.805Z,8.80
2022-10-22T05:26:55.393Z,8.80
2022-10-22T05:29:23.658Z,8.90
2022-10-22T05:31:51.312Z,8.90
2022-10-22T05:34:18.778Z,9.00
2022-10-22T05:36:46.998Z,9.10
2022-10-22T05:39:14.515Z,9.20
2022-10-22T05:41:41.971Z,9.20
2022-10-22T05:44:13.152Z,9.20
2022-10-22T05:46:41.153Z,9.30
2022-10-22T05:49:08.698Z,9.40
2022-10-22T05:51:37.656Z,9.40
2022-10-22T05:54:08.590Z,9.50
2022-10-22T05:56:37.580Z,9.60
2022-10-22T05:59:05.347Z,9.60
2022-10-22T06:01:35.745Z,9.60
2022-10-22T06:04:07.403Z,9.50
2022-10-22T06:06:47.450Z,9.50
2022-10-22T06:09:24.402Z,9.50
2022-10-22T06:11:52.457Z,9.60
2022-10-22T06:14:21.011Z,9.70
2022-10-22T06:16:49.446Z,9.80
2022-10-22T06:19:20.529Z,9.90
2022-10-22T06:21:49.056Z,9.80
2022-10-22T06:24:17.044Z,9.70
2022-10-22T06:26:44.496Z,9.70
2022-10-22T06:29:12.245Z,9.60
2022-10-22T06:31:39.716Z,9.50
2022-10-22T06:34:11.580Z,9.50
2022-10-22T06:36:42.858Z,9.50
2022-10-22T06:39:14.046Z,9.50
2022-10-22T06:41:42.056Z,9.50
2022-10-22T06:44:15.978Z,9.50
2022-10-22T06:46:43.991Z,9.60
2022-10-22T06:49:15.098Z,9.70
2022-10-22T06:51:43.070Z,9.80
2022-10-22T06:54:11.047Z,9.90
2022-10-22T06:56:38.575Z,9.90
2022-10-22T06:59:05.999Z,9.90
2022-10-22T07:01:35.558Z,10.00
2022-10-22T07:04:03.757Z,10.10
2022-10-22T07:06:31.343Z,10.10
2022-10-22T07:09:00.531Z,10.00
2022-10-22T07:11:43.944Z,10.10
2022-10-22T07:14:12.701Z,10.20
2022-10-22T07:16:43.256Z,10.30
2022-10-22T07:19:10.746Z,10.20
2022-10-22T07:21:38.576Z,10.30
2022-10-22T07:24:06.441Z,10.30
2022-10-22T07:26:34.284Z,10.40
2022-10-22T07:29:02.222Z,10.40
2022-10-22T07:31:29.903Z,10.50
2022-10-22T07:33:58.285Z,10.60
2022-10-22T07:36:25.766Z,10.70
2022-10-22T07:38:59.193Z,10.80
2022-10-22T07:41:28.879Z,10.90
2022-10-22T07:43:57.568Z,10.90
2022-10-22T07:46:26.288Z,11.10
2022-10-22T07:48:53.864Z,11.20
2022-10-22T07:51:21.523Z,11.20
2022-10-22T07:53:48.958Z,11.30
2022-10-22T07:56:16.511Z,11.20
2022-10-22T07:58:43.973Z,11.20
2022-10-22T08:01:11.787Z,11.20
2022-10-22T08:03:39.270Z,11.20
2022-10-22T08:06:07.171Z,11.20
2022-10-22T08:08:35.017Z,11.30
2022-10-22T08:11:02.718Z,11.30
2022-10-22T08:13:30.904Z,11.30
2022-10-22T08:16:02.043Z,11.20
2022-10-22T08:18:30.015Z,11.20
2022-10-22T08:20:58.041Z,11.30
2022-10-22T08:23:28.404Z,11.30
2022-10-22T08:25:57.733Z,11.30
2022-10-22T08:28:25.920Z,11.30
2022-10-22T08:30:53.410Z,11.40
2022-10-22T08:33:21.148Z,11.40
2022-10-22T08:35:53.078Z,11.40
2022-10-22T08:38:21.032Z,11.40
2022-10-22T08:40:54.488Z,11.50
2022-10-22T08:43:33.227Z,11.50
2022-10-22T08:46:45.350Z,11.60
2022-10-22T08:49:22.157Z,11.60
2022-10-22T08:51:50.070Z,11.50
2022-10-22T08:54:37.173Z,11.40
2022-10-22T09:00:12.586Z,11.50
2022-10-22T09:02:48.764Z,11.80
2022-10-22T09:05:53.070Z,11.90
2022-10-22T09:08:21.291Z,12.10
2022-10-22T09:10:53.766Z,12.20
2022-10-22T09:13:23.325Z,12.30
2022-10-22T09:16:00.458Z,12.50
2022-10-22T09:18:39.767Z,12.60
2022-10-22T09:21:10.210Z,12.70
2022-10-22T09:24:04.964Z,12.90
2022-10-22T09:26:38.236Z,12.70
2022-10-22T09:29:07.170Z,12.60
2022-10-22T09:31:35.437Z,12.50
2022-10-22T09:34:07.603Z,12.50
2022-10-22T09:36:36.124Z,12.50
2022-10-22T09:39:04.423Z,12.50
2022-10-22T09:41:32.044Z,12.40
2022-10-22T09:43:59.853Z,12.50
2022-10-22T09:46:44.078Z,12.50
2022-10-22T09:49:18.921Z,12.60
2022-10-22T09:51:54.000Z,12.70
2022-10-22T09:54:32.833Z,12.90
2022-10-22T09:57:17.836Z,13.10
2022-10-22T09:59:49.769Z,13.20
2022-10-22T10:02:40.285Z,13.10
2022-10-22T10:05:09.358Z,12.90
2022-10-22T10:07:37.455Z,12.90
2022-10-22T10:10:24.072Z,12.80
2022-10-22T10:13:38.875Z,12.70
2022-10-22T10:16:32.262Z,12.60
2022-10-22T10:19:21.051Z,12.60
2022-10-22T10:22:02.927Z,12.60
2022-10-22T10:24:50.951Z,12.50
2022-10-22T10:27:28.159Z,12.50
2022-10-22T10:30:21.385Z,12.50
2022-10-22T10:33:03.411Z,12.50
2022-10-22T10:36:09.721Z,12.50
2022-10-22T10:38:45.304Z,12.40
2022-10-22T10:41:32.358Z,12.30
2022-10-22T10:44:20.442Z,12.30
2022-10-22T10:47:29.657Z,12.20
2022-10-22T10:50:23.405Z,12.10
2022-10-22T10:53:22.092Z,12.00
2022-10-22T10:56:41.926Z,12.00
2022-10-22T10:59:14.819Z,12.00
2022-10-22T11:02:09.625Z,12.00
2022-10-22T11:04:45.415Z,12.00
2022-10-22T11:07:33.496Z,12.00
2022-10-22T11:13:31.453Z,12.20
2022-10-22T11:16:25.975Z,12.30
2022-10-22T11:19:10.122Z,12.50
2022-10-22T11:34:39.133Z,12.80
2022-10-22T11:37:07.661Z,12.90
2022-10-22T11:39:51.229Z,12.90
2022-10-22T11:42:23.781Z,12.90
2022-10-22T11:45:28.975Z,12.80
2022-10-22T11:48:11.253Z,13.10
2022-10-22T11:50:56.808Z,13.20
2022-10-22T11:53:37.739Z,13.20
2022-10-22T11:56:08.238Z,13.20
2022-10-22T11:58:43.934Z,13.20
2022-10-22T12:01:11.305Z,13.20
2022-10-22T12:03:44.165Z,13.10
2022-10-22T12:06:21.150Z,12.90
2022-10-22T12:09:00.285Z,12.90
2022-10-22T12:11:50.008Z,12.90
2022-10-22T12:14:20.111Z,12.90
2022-10-22T12:17:18.670Z,12.90
2022-10-22T12:20:09.497Z,12.90
2022-10-22T12:22:38.430Z,13.10
2022-10-22T12:25:34.744Z,13.10
2022-10-22T12:28:03.527Z,13.20
2022-10-22T12:30:37.246Z,13.40
2022-10-22T12:33:08.343Z,13.50
2022-10-22T12:35:44.118Z,13.40
2022-10-22T12:38:18.615Z,13.30
2022-10-22T12:40:48.704Z,13.30
2022-10-22T12:43:29.134Z,13.20
2022-10-22T12:45:59.115Z,13.10
2022-10-22T12:48:34.569Z,13.10
2022-10-22T12:51:05.215Z,13.10
2022-10-22T12:53:54.822Z,13.10
2022-10-22T12:56:32.176Z,13.00
2022-10-22T12:59:13.162Z,13.00
2022-10-22T13:01:43.388Z,13.00
2022-10-22T13:04:31.470Z,13.00
2022-10-22T13:07:18.527Z,13.00
2022-10-22T13:10:00.512Z,13.00
2022-10-22T13:12:36.496Z,13.00
2022-10-22T13:15:42.212Z,13.00
2022-10-22T13:18:22.912Z,13.00
2022-10-22T13:20:59.046Z,13.10
2022-10-22T13:23:30.228Z,13.10
2022-10-22T13:26:10.441Z,13.10
2022-10-22T13:28:38.006Z,13.10
2022-10-22T13:31:32.409Z,13.10
2022-10-22T13:34:09.895Z,13.10
2022-10-22T13:36:39.425Z,13.10
2022-10-22T13:39:14.264Z,13.10
2022-10-22T13:41:41.703Z,13.20
2022-10-22T13:44:09.171Z,13.10
2022-10-22T13:46:43.706Z,13.10
2022-10-22T13:49:23.590Z,13.00
2022-10-22T13:51:51.827Z,13.00
2022-10-22T13:54:24.274Z,13.00
2022-10-22T13:56:52.929Z,13.00
2022-10-22T13:59:22.978Z,13.10
2022-10-22T14:01:52.005Z,13.10
2022-10-22T14:04:19.553Z,13.10
2022-10-22T14:06:47.053Z,13.10
2022-10-22T14:09:16.399Z,13.10
2022-10-22T14:11:43.943Z,13.00
2022-10-22T14:14:14.456Z,13.00
2022-10-22T14:16:42.127Z,13.00
2022-10-22T14:19:16.896Z,13.00
2022-10-22T14:21:44.570Z,13.00
2022-10-22T14:24:13.240Z,13.00
2022-10-22T14:26:41.603Z,13.00
2022-10-22T14:29:10.327Z,13.00
2022-10-22T14:31:44.631Z,13.00
2022-10-22T14:34:16.003Z,13.00
2022-10-22T14:36:46.459Z,12.90
2022-10-22T14:39:14.576Z,12.90
2022-10-22T14:41:42.440Z,12.90
2022-10-22T14:44:14.397Z,12.90
2022-10-22T14:46:44.373Z,12.90
2022-10-22T14:49:12.635Z,12.90
2022-10-22T14:51:40.048Z,12.90
2022-10-22T14:54:07.469Z,13.00
2022-10-22T14:59:08.029Z,13.00
2022-10-22T15:01:35.656Z,13.00
2022-10-22T15:04:03.294Z,13.00
2022-10-22T15:06:30.911Z,13.10
2022-10-22T15:08:58.443Z,13.00
2022-10-22T15:11:26.031Z,13.10
2022-10-22T15:13:53.706Z,13.10
2022-10-22T15:16:21.215Z,13.00
2022-10-22T15:18:48.662Z,13.00
2022-10-22T15:21:21.135Z,13.00
2022-10-22T15:23:49.985Z,13.00
2022-10-22T15:26:18.078Z,13.00
2022-10-22T15:28:45.528Z,13.00
2022-10-22T15:31:14.681Z,13.00
2022-10-22T15:33:43.731Z,13.00
2022-10-22T15:36:19.886Z,13.00
2022-10-22T15:38:47.290Z,13.00
2022-10-22T15:41:14.648Z,13.00
2022-10-22T15:43:42.309Z,13.00
2022-10-22T15:46:19.371Z,13.00
2022-10-22T15:48:47.363Z,13.00
2022-10-22T15:51:19.051Z,13.00
2022-10-22T15:53:58.616Z,13.00
2022-10-22T15:56:29.162Z,13.00
2022-10-22T15:59:04.188Z,13.00
2022-10-22T16:01:34.772Z,13.00
2022-10-22T16:04:05.487Z,13.00
2022-10-22T16:06:40.587Z,13.00
2022-10-22T16:09:12.833Z,13.00
2022-10-22T16:11:41.616Z,13.00
2022-10-22T16:14:15.501Z,13.00
2022-10-22T16:16:46.736Z,13.00
2022-10-22T16:19:17.739Z,12.90
2022-10-22T16:21:45.520Z,12.90
2022-10-22T16:24:13.490Z,12.90
2022-10-22T16:26:40.936Z,12.90
2022-10-22T16:29:10.738Z,13.00
2022-10-22T16:31:38.906Z,12.90
2022-10-22T16:34:07.319Z,12.90
2022-10-22T16:36:36.446Z,12.90
2022-10-22T16:39:05.629Z,12.90
2022-10-22T16:41:35.722Z,12.90
2022-10-22T16:44:07.980Z,13.00
2022-10-22T16:46:39.669Z,12.90
2022-10-22T16:49:08.461Z,12.90
2022-10-22T16:51:36.617Z,12.90
2022-10-22T16:54:06.845Z,12.90
2022-10-22T16:56:37.776Z,12.90
2022-10-22T16:59:05.230Z,12.90
2022-10-22T17:01:35.664Z,12.90
2022-10-22T17:04:05.501Z,12.90
2022-10-22T17:06:32.997Z,13.00
2022-10-22T17:09:00.593Z,13.00
2022-10-22T17:11:30.326Z,13.00
2022-10-22T17:13:57.786Z,13.00
2022-10-22T17:16:25.769Z,13.00
2022-10-22T17:18:57.133Z,12.90
2022-10-22T17:21:25.675Z,12.90
2022-10-22T17:23:57.839Z,12.80
2022-10-22T17:26:27.074Z,12.80
2022-10-22T17:28:55.119Z,12.80
2022-10-22T17:31:29.441Z,12.80
2022-10-22T17:33:57.549Z,12.80
2022-10-22T17:36:27.525Z,12.90
2022-10-22T17:38:59.445Z,12.90
2022-10-22T17:41:33.774Z,12.90
2022-10-22T17:44:05.083Z,13.00
2022-10-22T17:46:33.411Z,13.00
2022-10-22T17:49:04.669Z,13.10
2022-10-22T17:51:33.449Z,13.10
2022-10-22T17:54:02.480Z,13.10
2022-10-22T17:56:32.124Z,13.10
2022-10-22T17:59:02.613Z,13.10
2022-10-22T18:01:33.534Z,13.10
2022-10-22T18:04:08.159Z,13.10
2022-10-22T18:06:36.042Z,13.00
2022-10-22T18:09:08.380Z,13.00
2022-10-22T18:11:37.495Z,13.00
2022-10-22T18:14:05.812Z,13.00
2022-10-22T18:16:33.404Z,12.90
2022-10-22T18:19:01.502Z,12.90
2022-10-22T18:21:30.741Z,12.80
2022-10-22T18:23:59.687Z,12.80
2022-10-22T18:26:27.530Z,12.70
2022-10-22T18:28:57.331Z,12.70
2022-10-22T18:31:27.198Z,12.70
2022-10-22T18:33:55.814Z,12.80
2022-10-22T18:36:26.395Z,12.80
2022-10-22T18:38:57.435Z,12.80
2022-10-22T18:41:24.966Z,12.80
2022-10-22T18:43:58.387Z,12.80
2022-10-22T18:46:27.215Z,12.80
2022-10-22T18:48:57.128Z,12.80
2022-10-22T18:51:26.327Z,12.80
2022-10-22T18:54:05.389Z,12.80
2022-10-22T18:56:40.933Z,12.80
2022-10-22T18:59:24.822Z,12.80
2022-10-22T19:01:54.950Z,12.80
2022-10-22T19:04:22.730Z,12.80
2022-10-22T19:06:50.634Z,12.80
2022-10-22T19:09:18.644Z,12.80
2022-10-22T19:11:46.978Z,12.70
2022-10-22T19:14:15.258Z,12.70
2022-10-22T19:16:42.901Z,12.70
2022-10-22T19:19:11.510Z,12.80
2022-10-22T19:21:39.000Z,12.80
2022-10-22T19:24:07.487Z,12.80
2022-10-22T19:26:35.191Z,12.80
2022-10-22T19:29:03.729Z,12.80
2022-10-22T19:31:31.819Z,12.80
2022-10-22T19:34:01.697Z,12.80
2022-10-22T19:36:31.368Z,12.70
2022-10-22T19:38:59.542Z,12.60
2022-10-22T19:41:29.735Z,12.60
2022-10-22T19:43:59.269Z,12.60
2022-10-22T19:46:29.318Z,12.50
2022-10-22T19:48:57.492Z,12.60
2022-10-22T19:51:29.871Z,12.60
2022-10-22T19:54:03.681Z,12.60
2022-10-22T19:56:32.698Z,12.50
2022-10-22T19:59:00.880Z,12.50
2022-10-22T20:01:28.539Z,12.50
2022-10-22T20:03:56.262Z,12.40
2022-10-22T20:06:26.607Z,12.40
2022-10-22T20:08:56.128Z,12.40
2022-10-22T20:11:28.497Z,12.30
2022-10-22T20:13:56.949Z,12.30
2022-10-22T20:16:28.763Z,12.30
2022-10-22T20:19:01.688Z,12.20
2022-10-22T20:21:29.196Z,12.20
2022-10-22T20:23:57.675Z,12.10
2022-10-22T20:26:28.342Z,12.10
2022-10-22T20:28:57.773Z,12.10
2022-10-22T20:31:28.813Z,12.10
2022-10-22T20:34:01.330Z,12.10
2022-10-22T20:36:30.727Z,12.10
2022-10-22T20:39:10.420Z,12.10
2022-10-22T20:41:40.547Z,12.10
2022-10-22T20:44:19.493Z,12.10
2022-10-22T20:46:47.010Z,12.00
2022-10-22T20:49:16.775Z,12.00
2022-10-22T20:51:44.877Z,11.90
2022-10-22T20:54:14.239Z,11.80
2022-10-22T20:56:43.648Z,11.70
2022-10-22T20:59:12.511Z,11.70
2022-10-22T21:01:53.450Z,11.60
2022-10-22T21:04:22.092Z,11.60
2022-10-22T21:06:50.724Z,11.60
2022-10-22T21:09:18.352Z,11.60
2022-10-22T21:11:46.468Z,11.60
2022-10-22T21:14:20.244Z,11.60
2022-10-22T21:16:50.724Z,11.60
2022-10-22T21:19:22.038Z,11.60
2022-10-22T21:21:49.837Z,11.60
2022-10-22T21:24:17.487Z,11.60
2022-10-22T21:26:45.556Z,11.60
2022-10-22T21:29:13.813Z,11.50
2022-10-22T21:31:41.310Z,11.50
2022-10-22T21:34:08.835Z,11.40
2022-10-22T21:36:36.272Z,11.40
2022-10-22T21:39:04.106Z,11.40
2022-10-22T21:41:31.655Z,11.40
2022-10-22T21:43:59.730Z,11.30
2022-10-22T21:46:29.640Z,11.30
2022-10-22T21:49:05.146Z,11.30
2022-10-22T21:51:36.586Z,11.30
2022-10-22T21:54:04.842Z,11.30
2022-10-22T21:56:35.375Z,11.30
2022-10-22T21:59:05.116Z,11.30
2022-10-22T22:01:33.308Z,11.30
2022-10-22T22:04:01.186Z,11.30
2022-10-22T22:06:33.089Z,11.30
2022-10-22T22:09:03.312Z,11.30
2022-10-22T22:11:31.385Z,11.30
2022-10-22T22:13:59.270Z,11.20
2022-10-22T22:16:30.604Z,11.20
2022-10-22T22:19:01.176Z,11.10
2022-10-22T22:21:29.927Z,11.10
2022-10-22T22:23:58.231Z,11.10
2022-10-22T22:26:30.090Z,11.10
2022-10-22T22:28:59.820Z,11.00
2022-10-22T22:31:31.545Z,11.00
2022-10-22T22:34:06.312Z,10.90
2022-10-22T22:36:38.394Z,10.90
2022-10-22T22:39:08.511Z,10.80
2022-10-22T22:41:36.018Z,10.80
2022-10-22T22:44:03.465Z,10.80
2022-10-22T22:46:31.090Z,10.70
2022-10-22T22:48:58.493Z,10.60
2022-10-22T22:51:25.999Z,10.50
2022-10-22T22:53:53.597Z,10.50
2022-10-22T22:56:24.665Z,10.40
2022-10-22T22:58:52.346Z,10.40
2022-10-22T23:01:25.872Z,10.40
2022-10-22T23:04:00.135Z,10.40
2022-10-22T23:06:31.359Z,10.40
2022-10-22T23:08:59.664Z,10.40
2022-10-22T23:11:28.571Z,10.30
2022-10-22T23:14:03.159Z,10.20
2022-10-22T23:16:34.236Z,10.10
2022-10-22T23:19:01.842Z,10.10
2022-10-22T23:21:36.532Z,10.00
2022-10-22T23:24:09.237Z,10.00
2022-10-22T23:26:41.399Z,9.90
2022-10-22T23:29:26.330Z,9.90
2022-10-22T23:31:54.718Z,9.80
2022-10-22T23:34:25.352Z,9.80
2022-10-22T23:36:55.045Z,9.80
2022-10-22T23:39:26.559Z,9.70
2022-10-22T23:41:55.102Z,9.70
2022-10-22T23:44:23.770Z,9.60
2022-10-22T23:46:52.178Z,9.60
2022-10-22T23:49:19.667Z,9.50
2022-10-22T23:51:47.488Z,9.40
2022-10-22T23:54:17.980Z,9.30
2022-10-22T23:56:45.607Z,9.30
